KGIF/GIF METAR and TAF weather

Enter ICAO airport designator
Station Type Date Time Source
KGIF METAR 2019/05/19 20:53 UTC NOAA

KGIF 192053Z AUTO 00000KT 10SM FEW080 33/13 A2999 RMK AO2 SLP152 T03330133 58020 TSNO


Station Type Date Time Source
KGIF Decoded METAR 2019/05/19 20:53 UTC NOAA

WINTER HAVENS GILBERT AIRPORT , FL, United States (KGIF) 28-04N 81-45W 43M
May 19, 2019 - 04:53 PM EDT / 2019.05.19 2053 UTC
Wind: Calm:0
Visibility: 10 mile(s):0
Sky conditions: mostly clear
Temperature: 91.9 F (33.3 C)
Dew Point: 55.9 F (13.3 C)
Relative Humidity: 29%
Pressure (altimeter): 29.99 in. Hg (1015 hPa)
Pressure tendency: 0.06 inches (2.0 hPa) lower than three hours ago
ob: KGIF 192053Z AUTO 00000KT 10SM FEW080 33/13 A2999 RMK AO2 SLP152 T03330133 58020 TSNO
cycle: 21

Station Type Date Time Source
KGIF TAF UTC NOAA

Error!

Example: see airport list